createdAt,value
2023-04-19T00:04:51.088Z,13.23
2023-04-19T00:09:54.219Z,12.10
2023-04-19T00:14:57.115Z,11.37
2023-04-19T00:20:01.897Z,10.90
2023-04-19T00:25:05.184Z,10.43
2023-04-19T00:30:09.020Z,13.43
2023-04-19T00:35:13.325Z,12.37
2023-04-19T00:40:16.341Z,11.47
2023-04-19T00:45:19.325Z,11.30
2023-04-19T00:50:23.956Z,13.23
2023-04-19T00:55:27.051Z,9.90
2023-04-19T01:00:30.110Z,9.30
2023-04-19T01:05:34.384Z,9.73
2023-04-19T01:10:37.319Z,11.90
2023-04-19T01:15:40.307Z,10.37
2023-04-19T01:20:44.616Z,10.13
2023-04-19T01:25:48.871Z,9.73
2023-04-19T01:30:53.845Z,9.67
2023-04-19T01:35:56.808Z,9.77
2023-04-19T01:41:01.100Z,9.93
2023-04-19T01:46:03.999Z,10.07
2023-04-19T01:51:07.102Z,10.20
2023-04-19T01:56:12.713Z,10.73
2023-04-19T02:01:15.752Z,12.60
2023-04-19T02:06:18.855Z,11.57
2023-04-19T02:11:23.111Z,12.03
2023-04-19T02:16:26.116Z,11.37
2023-04-19T02:21:29.172Z,10.73
2023-04-19T02:26:33.476Z,11.60
2023-04-19T02:31:37.866Z,11.43
2023-04-19T02:36:40.862Z,11.67
2023-04-19T02:41:45.081Z,11.73
2023-04-19T02:46:49.987Z,12.60
2023-04-19T02:51:53.319Z,13.00
2023-04-19T02:56:57.793Z,11.17
2023-04-19T03:02:00.982Z,11.83
2023-04-19T03:07:04.091Z,10.73
2023-04-19T03:12:09.321Z,9.93
2023-04-19T03:17:12.413Z,10.47
2023-04-19T03:22:15.395Z,12.10
2023-04-19T03:27:20.251Z,12.80
2023-04-19T03:32:28.557Z,15.33
2023-04-19T03:37:31.527Z,13.60
2023-04-19T03:42:36.549Z,13.43
2023-04-19T03:48:03.153Z,20.00
2023-04-19T03:53:06.993Z,15.00
2023-04-19T03:58:12.032Z,13.87
2023-04-19T04:03:24.349Z,14.30
2023-04-19T04:08:27.590Z,14.90
2023-04-19T04:13:31.856Z,16.10
2023-04-19T04:18:49.479Z,14.90
2023-04-19T04:23:53.261Z,15.30
2023-04-19T04:29:06.786Z,15.50
2023-04-19T04:34:10.838Z,16.27
2023-04-19T04:39:22.784Z,13.87
2023-04-19T04:49:31.543Z,11.93
2023-04-19T04:54:34.983Z,11.50
2023-04-19T04:59:39.392Z,10.80
2023-04-19T05:04:42.675Z,11.67
2023-04-19T05:09:46.424Z,11.23
2023-04-19T05:14:55.415Z,9.30
2023-04-19T05:19:58.558Z,7.57
2023-04-19T05:25:02.194Z,7.67
2023-04-19T05:30:08.210Z,7.87
2023-04-19T05:35:15.936Z,9.27
2023-04-19T05:40:20.358Z,8.90
2023-04-19T05:45:24.998Z,8.80
2023-04-19T05:50:28.468Z,8.93
2023-04-19T05:56:09.626Z,8.27
2023-04-19T06:01:14.014Z,5.23
2023-04-19T06:06:17.207Z,4.30
2023-04-19T06:11:28.726Z,4.10
2023-04-19T06:16:35.989Z,4.40
2023-04-19T06:21:39.135Z,3.90
2023-04-19T06:26:42.097Z,4.30
2023-04-19T06:31:46.785Z,4.27
2023-04-19T06:36:49.700Z,4.10
2023-04-19T06:41:52.717Z,4.00
2023-04-19T06:46:56.972Z,4.57
2023-04-19T06:52:01.680Z,3.57
2023-04-19T06:57:04.569Z,3.53
2023-04-19T07:02:09.252Z,3.47
2023-04-19T07:07:12.248Z,3.40
2023-04-19T07:12:15.138Z,3.10
2023-04-19T07:17:19.848Z,3.53
2023-04-19T07:22:23.321Z,3.60
2023-04-19T07:27:26.331Z,3.93
2023-04-19T07:32:32.026Z,3.30
2023-04-19T07:37:36.135Z,3.60
2023-04-19T07:42:39.042Z,3.20
2023-04-19T07:47:43.328Z,3.10
2023-04-19T07:52:46.241Z,3.30
2023-04-19T07:57:49.187Z,3.60
2023-04-19T08:02:53.686Z,3.03
2023-04-19T08:07:56.837Z,3.70
2023-04-19T08:13:05.870Z,3.60
2023-04-19T08:18:11.115Z,3.33
2023-04-19T08:23:22.957Z,3.23
2023-04-19T08:28:28.856Z,3.70
2023-04-19T08:33:33.088Z,3.00
2023-04-19T08:38:36.021Z,3.60
2023-04-19T08:43:40.547Z,3.67
2023-04-19T08:48:48.431Z,3.70
2023-04-19T08:53:52.723Z,3.43
2023-04-19T09:04:17.014Z,3.90
2023-04-19T09:14:33.499Z,4.37
2023-04-19T09:19:47.821Z,4.23
2023-04-19T09:29:59.166Z,4.17
2023-04-19T09:35:03.982Z,3.87
2023-04-19T09:40:25.054Z,4.57
2023-04-19T09:45:30.658Z,4.20
2023-04-19T09:50:46.220Z,4.13
2023-04-19T09:56:02.170Z,4.70
2023-04-19T10:01:14.751Z,4.27
2023-04-19T10:11:28.161Z,4.17
2023-04-19T10:16:32.697Z,4.10
2023-04-19T10:21:38.157Z,4.17
2023-04-19T10:27:11.363Z,4.53
2023-04-19T10:32:14.666Z,3.93
2023-04-19T10:37:22.646Z,4.03
2023-04-19T10:42:25.570Z,4.33
2023-04-19T10:47:42.424Z,3.90
2023-04-19T10:52:46.772Z,4.50
2023-04-19T10:58:06.338Z,4.90
2023-04-19T11:03:42.983Z,3.70
2023-04-19T11:08:47.856Z,3.87
2023-04-19T11:13:51.268Z,3.90
2023-04-19T11:18:54.131Z,4.33
2023-04-19T11:24:11.118Z,4.00
2023-04-19T11:29:14.157Z,4.03
2023-04-19T11:34:17.428Z,3.80
2023-04-19T11:39:22.424Z,4.53
2023-04-19T11:44:25.391Z,4.30
2023-04-19T11:49:29.509Z,4.60
2023-04-19T11:54:34.172Z,4.33
2023-04-19T11:59:37.751Z,4.23
2023-04-19T12:04:41.163Z,4.00
2023-04-19T12:09:50.192Z,3.93
2023-04-19T12:14:53.596Z,4.00
2023-04-19T12:19:56.481Z,3.80
2023-04-19T12:25:00.753Z,4.13
2023-04-19T12:30:07.025Z,4.63
2023-04-19T12:35:11.090Z,4.10
2023-04-19T12:40:16.402Z,4.63
2023-04-19T12:45:20.187Z,4.10
2023-04-19T12:50:23.257Z,4.93
2023-04-19T12:55:27.708Z,4.77
2023-04-19T13:00:31.163Z,3.97
2023-04-19T13:05:34.113Z,5.30
2023-04-19T13:10:38.483Z,4.47
2023-04-19T13:15:42.052Z,4.30
2023-04-19T13:20:45.016Z,4.60
2023-04-19T13:25:49.325Z,4.37
2023-04-19T13:30:52.548Z,4.60
2023-04-19T13:35:55.784Z,4.80
2023-04-19T13:41:00.773Z,4.50
2023-04-19T13:46:03.769Z,5.00
2023-04-19T13:51:07.795Z,4.80
2023-04-19T13:56:12.142Z,5.03
2023-04-19T14:01:15.292Z,5.00
2023-04-19T14:06:18.253Z,4.40
2023-04-19T14:11:23.439Z,4.60
2023-04-19T14:16:26.486Z,3.77
2023-04-19T14:21:29.491Z,4.67
2023-04-19T14:26:33.896Z,4.97
2023-04-19T14:31:36.815Z,5.67
2023-04-19T14:36:39.795Z,5.47
2023-04-19T14:41:44.553Z,5.90
2023-04-19T14:46:47.447Z,5.80
2023-04-19T14:51:50.342Z,5.53
2023-04-19T14:56:54.644Z,5.50
2023-04-19T15:01:57.846Z,5.03
2023-04-19T15:07:00.920Z,4.33
2023-04-19T15:12:05.886Z,6.93
2023-04-19T15:17:08.796Z,4.43
2023-04-19T15:22:11.714Z,5.10
2023-04-19T15:27:16.081Z,5.50
2023-04-19T15:32:21.566Z,5.27
2023-04-19T15:37:24.813Z,6.07
2023-04-19T15:42:29.133Z,6.20
2023-04-19T15:47:32.101Z,5.87
2023-04-19T15:52:35.496Z,6.40
2023-04-19T15:57:39.885Z,7.63
2023-04-19T16:02:43.287Z,7.13
2023-04-19T16:07:46.773Z,6.63
2023-04-19T16:12:51.072Z,7.40
2023-04-19T16:17:54.132Z,6.80
2023-04-19T16:22:58.742Z,6.57
2023-04-19T16:28:03.082Z,6.50
2023-04-19T16:33:07.575Z,6.97
2023-04-19T16:38:10.856Z,8.20
2023-04-19T16:43:15.139Z,5.70
2023-04-19T16:48:18.158Z,6.23
2023-04-19T16:53:21.243Z,6.10
2023-04-19T16:58:25.473Z,7.13
2023-04-19T17:03:30.284Z,6.50
2023-04-19T17:08:34.243Z,6.23
2023-04-19T17:13:38.816Z,6.63
2023-04-19T17:18:41.830Z,7.00
2023-04-19T17:23:46.188Z,6.43
2023-04-19T17:28:50.634Z,7.73
2023-04-19T17:33:53.665Z,8.03
2023-04-19T17:38:57.836Z,6.77
2023-04-19T17:44:02.778Z,7.43
2023-04-19T17:49:06.111Z,7.93
2023-04-19T17:54:09.082Z,7.47
2023-04-19T17:59:13.446Z,7.73
2023-04-19T18:04:20.132Z,6.73
2023-04-19T18:09:23.189Z,7.67
2023-04-19T18:14:27.473Z,7.17
2023-04-19T18:19:30.447Z,8.00
2023-04-19T18:24:33.452Z,7.30
2023-04-19T18:29:37.814Z,6.00
2023-04-19T18:34:40.784Z,6.23
2023-04-19T18:39:43.892Z,6.80
2023-04-19T18:50:04.439Z,7.40
2023-04-19T18:55:10.757Z,7.53
2023-04-19T19:00:16.115Z,7.30
2023-04-19T19:05:19.119Z,7.67
2023-04-19T19:10:26.605Z,7.23
2023-04-19T19:15:46.449Z,7.10
2023-04-19T19:20:51.358Z,17.20
2023-04-19T19:25:54.469Z,8.23
2023-04-19T19:30:58.809Z,8.77
2023-04-19T19:36:01.821Z,9.63
2023-04-19T19:46:14.038Z,7.70
2023-04-19T19:51:44.221Z,7.80
2023-04-19T19:56:55.640Z,7.00
2023-04-19T20:02:04.521Z,7.17
2023-04-19T20:07:32.491Z,6.37
2023-04-19T20:12:30.398Z,6.70
2023-04-19T20:17:34.951Z,5.90
2023-04-19T20:22:38.045Z,6.53
2023-04-19T20:27:40.964Z,5.83
2023-04-19T20:32:45.442Z,6.00
2023-04-19T20:37:48.493Z,6.17
2023-04-19T20:42:51.531Z,5.90
2023-04-19T20:47:55.849Z,6.40
2023-04-19T20:52:58.818Z,6.10
2023-04-19T20:58:02.531Z,6.10
2023-04-19T21:03:07.945Z,6.00
2023-04-19T21:08:11.093Z,5.83
2023-04-19T21:13:13.994Z,5.97
2023-04-19T21:18:18.584Z,5.50
2023-04-19T21:23:21.470Z,5.40
2023-04-19T21:28:24.938Z,5.30
2023-04-19T21:33:29.288Z,4.87
2023-04-19T21:38:32.198Z,4.73
2023-04-19T21:43:35.673Z,5.00
2023-04-19T21:48:40.065Z,4.93
2023-04-19T21:53:42.914Z,5.20
2023-04-19T21:58:45.893Z,4.40
2023-04-19T22:03:50.473Z,5.43
2023-04-19T22:08:53.711Z,5.60
2023-04-19T22:13:56.752Z,5.53
2023-04-19T22:19:01.372Z,4.73
2023-04-19T22:24:04.694Z,5.20
2023-04-19T22:29:07.641Z,5.40
2023-04-19T22:34:11.924Z,5.13
2023-04-19T22:39:16.122Z,5.57
2023-04-19T22:44:19.292Z,5.10
2023-04-19T22:49:24.033Z,5.70
2023-04-19T22:54:27.191Z,5.67
2023-04-19T22:59:30.176Z,5.43
2023-04-19T23:04:36.089Z,5.70
2023-04-19T23:09:39.489Z,5.23
2023-04-19T23:14:42.561Z,4.90
2023-04-19T23:19:46.841Z,4.43
2023-04-19T23:24:49.783Z,5.20
2023-04-19T23:29:52.667Z,4.53
2023-04-19T23:34:57.012Z,4.40
2023-04-19T23:40:00.061Z,4.70
2023-04-19T23:45:02.948Z,5.47
2023-04-19T23:50:08.409Z,5.50
2023-04-19T23:55:11.350Z,5.50
